Warsaw, NY (14569)

6:00 PM EDT on September 04, 2015 (GMT -0400)
Synergy Farm | | Change Station
CLOSE
Current Station
Personal Weather Station
Location: Wyoming, NY
Elevation: 1080 ft
Nearby Weather Stations

Elev 1080 ft 42.83 °N, 78.05 °W | Updated 12 seconds ago

Clear
Clear
82.7 °F
Feels Like 87 °F
N
0.0
Wind Variable Wind from NE
Gusts 10.0 mph

Today
High -- | Low -- °F
--% Chance of Precip.
Yesterday
High -- | Low -- °F
Precip. -- in
6:40 AM 7:42 PM
Waning Gibbous, 55% visible
Pressure 30.09 in
Visibility 10.0 miles
Clouds Clear
Heat Index 87 °F
Dew Point 70 °F
Humidity 66%
Rainfall 0.00 in
Snow Depth Not available.
UV 1 out of 12
Pollen 10.40 out of 12
Air Quality Not available.
Flu Activity Not available.
METAR KDSV 042154Z AUTO 10005KT 10SM CLR 29/18 A3008 RMK AO2 SLP190 T02940183
Pressure 30.09 in
Visibility 10.0 miles
Clouds Clear
Heat Index 87 °F
Dew Point 70 °F
Humidity 66%
Rainfall 0.00 in
Snow Depth Not available.
UV 1 out of 12
Pollen 10.40 out of 12
Air Quality Not available.
Flu Activity Not available.
METAR KDSV 042154Z AUTO 10005KT 10SM CLR 29/18 A3008 RMK AO2 SLP190 T02940183

10-Day Weather Forecast

×

Almanac

Astronomy

Sep. 04, 2015 Rise Set
Actual Time
Civil Twilight
Nautical Twilight
Astronomical Twilight
Moon
Length of Visible Light
Length of Day
Tomorrow will be .
, % of the Moon is Illuminated

Today's Extremes

State Highs State Lows

Community

WunderPhotos

Upload Photos

1,852,305 photos uploaded!

WunderBlogs® & News

Nearby

Air Quality

  Air Quality AQ Index Pollutant
Not available.

Snow Depth

Station Depth Elevation

Earthquake Activity

City Distance Mag. Time & Date
Minimum magnitude displayed is 2.5.

Coastal Water Temperatures

Place Temperature

Stations

Nearby Weather Stations

Station Location Temp. Windchill Dew Point Humidity Wind Precip. Elev Updated Type